createdAt,value
2017-11-25T00:02:26.423Z,12.37
2017-11-25T00:04:53.926Z,5.95
2017-11-25T00:07:21.463Z,8.88
2017-11-25T00:09:48.983Z,7.82
2017-11-25T00:12:17.287Z,8.90
2017-11-25T00:14:45.555Z,8.43
2017-11-25T00:17:13.240Z,7.45
2017-11-25T00:19:40.757Z,14.60
2017-11-25T00:22:09.056Z,8.50
2017-11-25T00:24:36.588Z,14.43
2017-11-25T00:27:04.865Z,9.30
2017-11-25T00:29:33.152Z,7.40
2017-11-25T00:32:01.423Z,9.00
2017-11-25T00:34:29.707Z,8.73
2017-11-25T00:36:57.981Z,12.40
2017-11-25T00:39:26.257Z,8.15
2017-11-25T00:41:54.547Z,7.30
2017-11-25T00:44:22.055Z,7.82
2017-11-25T00:46:49.580Z,10.32
2017-11-25T00:49:17.079Z,8.90
2017-11-25T00:51:44.604Z,8.93
2017-11-25T00:54:12.108Z,8.63
2017-11-25T00:56:39.645Z,11.60
2017-11-25T00:59:07.160Z,6.75
2017-11-25T01:01:34.680Z,6.68
2017-11-25T01:04:02.186Z,5.78
2017-11-25T01:06:29.707Z,8.05
2017-11-25T01:08:57.998Z,11.15
2017-11-25T01:11:26.300Z,8.48
2017-11-25T01:13:53.816Z,10.82
2017-11-25T01:16:21.339Z,8.95
2017-11-25T01:18:48.845Z,6.50
2017-11-25T01:21:17.130Z,11.50
2017-11-25T01:23:44.639Z,8.00
2017-11-25T01:26:12.160Z,9.02
2017-11-25T01:28:39.673Z,8.32
2017-11-25T01:31:07.200Z,13.07
2017-11-25T01:33:34.695Z,6.80
2017-11-25T01:36:02.220Z,6.68
2017-11-25T01:38:29.737Z,7.57
2017-11-25T01:40:58.014Z,7.53
2017-11-25T01:43:25.552Z,7.05
2017-11-25T01:45:53.058Z,11.38
2017-11-25T01:48:20.590Z,5.82
2017-11-25T01:50:48.876Z,6.57
2017-11-25T01:53:17.164Z,7.57
2017-11-25T01:55:44.676Z,5.93
2017-11-25T01:58:12.254Z,5.90
2017-11-25T02:00:39.782Z,5.80
2017-11-25T02:03:07.326Z,8.82
2017-11-25T02:05:34.867Z,11.80
2017-11-25T02:08:02.393Z,6.45
2017-11-25T02:10:29.903Z,8.70
2017-11-25T02:12:57.431Z,9.80
2017-11-25T02:15:25.713Z,9.85
2017-11-25T02:17:53.998Z,6.25
2017-11-25T02:20:21.507Z,8.70
2017-11-25T02:22:49.036Z,6.18
2017-11-25T02:25:16.548Z,15.50
2017-11-25T02:27:44.847Z,7.05
2017-11-25T02:30:12.358Z,6.15
2017-11-25T02:32:39.880Z,7.97
2017-11-25T02:35:07.396Z,9.95
2017-11-25T02:37:34.924Z,11.10
2017-11-25T02:40:02.429Z,7.78
2017-11-25T02:42:30.725Z,6.40
2017-11-25T02:44:58.222Z,9.32
2017-11-25T02:47:25.748Z,8.00
2017-11-25T02:49:53.271Z,6.78
2017-11-25T02:52:21.568Z,8.32
2017-11-25T02:54:49.076Z,9.98
2017-11-25T02:57:16.624Z,7.18
2017-11-25T02:59:44.132Z,6.32
2017-11-25T03:02:12.400Z,9.27
2017-11-25T03:04:39.927Z,8.93
2017-11-25T03:07:07.433Z,7.03
2017-11-25T03:09:35.724Z,6.32
2017-11-25T03:12:03.233Z,7.53
2017-11-25T03:14:30.751Z,5.32
2017-11-25T03:16:58.268Z,12.02
2017-11-25T03:19:25.788Z,5.50
2017-11-25T03:21:53.290Z,7.80
2017-11-25T03:24:20.815Z,6.40
2017-11-25T03:26:48.327Z,11.27
2017-11-25T03:29:16.619Z,13.25
2017-11-25T03:31:44.139Z,6.50
2017-11-25T03:34:11.669Z,6.25
2017-11-25T03:36:39.173Z,7.80
2017-11-25T03:39:07.479Z,8.68
2017-11-25T03:41:34.980Z,6.53
2017-11-25T03:44:02.506Z,10.68
2017-11-25T03:46:30.024Z,9.13
2017-11-25T03:48:57.549Z,15.07
2017-11-25T03:51:25.052Z,9.77
2017-11-25T03:53:53.338Z,7.35
2017-11-25T03:56:20.853Z,7.45
2017-11-25T03:58:48.380Z,7.45
2017-11-25T04:01:15.894Z,6.85
2017-11-25T04:03:44.204Z,5.82
2017-11-25T04:06:11.709Z,11.07
2017-11-25T04:08:39.217Z,6.18
2017-11-25T04:11:06.738Z,8.98
2017-11-25T04:13:34.260Z,6.97
2017-11-25T04:16:01.779Z,7.62
2017-11-25T04:18:30.049Z,7.28
2017-11-25T04:20:58.360Z,7.07
2017-11-25T04:23:25.861Z,5.25
2017-11-25T04:25:53.409Z,6.87
2017-11-25T04:28:20.917Z,6.10
2017-11-25T04:30:48.415Z,6.70
2017-11-25T04:33:16.713Z,5.70
2017-11-25T04:35:44.216Z,8.23
2017-11-25T04:38:11.734Z,8.82
2017-11-25T04:40:39.238Z,8.02
2017-11-25T04:43:06.761Z,4.25
2017-11-25T04:45:34.279Z,6.95
2017-11-25T04:48:02.569Z,7.50
2017-11-25T04:50:30.097Z,12.52
2017-11-25T04:52:57.627Z,7.35
2017-11-25T04:55:25.892Z,7.03
2017-11-25T04:57:53.415Z,6.28
2017-11-25T05:00:23.684Z,5.10
2017-11-25T05:02:51.983Z,9.23
2017-11-25T05:05:19.491Z,7.05
2017-11-25T05:07:47.016Z,7.03
2017-11-25T05:10:14.512Z,7.25
2017-11-25T05:12:42.036Z,21.50
2017-11-25T05:15:09.531Z,7.10
2017-11-25T05:17:37.068Z,4.65
2017-11-25T05:20:04.573Z,5.03
2017-11-25T05:22:32.075Z,5.87
2017-11-25T05:24:59.593Z,8.40
2017-11-25T05:27:27.879Z,5.20
2017-11-25T05:29:56.161Z,4.60
2017-11-25T05:32:24.432Z,7.70
2017-11-25T05:34:52.715Z,7.55
2017-11-25T05:37:20.979Z,9.05
2017-11-25T05:39:48.500Z,4.75
2017-11-25T05:42:16.005Z,5.43
2017-11-25T05:44:44.284Z,7.60
2017-11-25T05:47:12.560Z,4.75
2017-11-25T05:49:40.861Z,5.30
2017-11-25T05:52:08.376Z,11.05
2017-11-25T05:54:35.876Z,5.57
2017-11-25T05:57:03.391Z,4.15
2017-11-25T05:59:30.879Z,5.95
2017-11-25T06:01:59.169Z,8.82
2017-11-25T06:04:26.675Z,5.47
2017-11-25T06:06:54.197Z,10.30
2017-11-25T06:09:21.701Z,6.32
2017-11-25T06:11:49.222Z,7.03
2017-11-25T06:14:16.728Z,5.93
2017-11-25T06:16:44.256Z,3.75
2017-11-25T06:19:11.752Z,9.45
2017-11-25T06:21:40.036Z,6.80
2017-11-25T06:24:08.309Z,7.75
2017-11-25T06:26:36.604Z,5.87
2017-11-25T06:29:04.287Z,7.82
2017-11-25T06:31:31.807Z,5.57
2017-11-25T06:34:00.085Z,3.70
2017-11-25T06:36:28.382Z,4.82
2017-11-25T06:38:55.888Z,6.72
2017-11-25T06:41:23.408Z,3.22
2017-11-25T06:43:50.916Z,4.87
2017-11-25T06:46:18.433Z,6.20
2017-11-25T06:48:45.936Z,6.93
2017-11-25T06:51:13.457Z,6.30
2017-11-25T06:53:40.959Z,4.03
2017-11-25T06:56:08.463Z,7.78
2017-11-25T06:58:35.991Z,4.00
2017-11-25T07:01:04.271Z,4.53
2017-11-25T07:03:32.564Z,7.57
2017-11-25T07:06:00.094Z,8.50
2017-11-25T07:08:27.622Z,5.22
2017-11-25T07:10:55.134Z,6.87
2017-11-25T07:13:22.661Z,5.18
2017-11-25T07:15:50.162Z,5.57
2017-11-25T07:18:17.712Z,6.70
2017-11-25T07:20:45.215Z,6.57
2017-11-25T07:23:12.718Z,4.07
2017-11-25T07:25:40.248Z,10.70
2017-11-25T07:28:07.761Z,5.53
2017-11-25T07:30:35.289Z,11.50
2017-11-25T07:33:03.564Z,6.40
2017-11-25T07:35:31.084Z,18.02
2017-11-25T07:37:58.595Z,19.92
2017-11-25T07:40:26.895Z,17.55
2017-11-25T07:42:54.392Z,22.30
2017-11-25T07:45:21.915Z,14.43
2017-11-25T07:47:49.423Z,16.75
2017-11-25T07:50:16.953Z,13.80
2017-11-25T07:52:44.465Z,12.65
2017-11-25T07:55:12.755Z,12.68
2017-11-25T07:57:40.262Z,16.17
2017-11-25T08:00:07.800Z,11.88
2017-11-25T08:02:35.316Z,9.80
2017-11-25T08:05:03.632Z,9.10
2017-11-25T08:07:31.139Z,11.02
2017-11-25T08:09:58.670Z,8.38
2017-11-25T08:12:26.230Z,10.55
2017-11-25T08:14:53.747Z,10.65
2017-11-25T08:17:21.268Z,10.68
2017-11-25T08:19:48.772Z,13.25
2017-11-25T08:22:16.299Z,11.63
2017-11-25T08:24:43.805Z,11.73
2017-11-25T08:27:11.333Z,9.50
2017-11-25T08:29:39.600Z,8.45
2017-11-25T08:32:07.890Z,8.57
2017-11-25T08:34:35.395Z,9.50
2017-11-25T08:37:02.912Z,10.00
2017-11-25T08:39:31.176Z,9.65
2017-11-25T08:41:59.488Z,10.35
2017-11-25T08:44:26.994Z,9.18
2017-11-25T08:46:54.506Z,9.20
2017-11-25T08:49:22.056Z,5.80
2017-11-25T08:51:49.562Z,11.63
2017-11-25T08:54:17.081Z,8.00
2017-11-25T08:56:44.594Z,5.80
2017-11-25T08:59:12.142Z,6.45
2017-11-25T09:01:40.434Z,11.88
2017-11-25T09:04:07.967Z,8.98
2017-11-25T09:06:35.467Z,8.18
2017-11-25T09:09:03.764Z,13.75
2017-11-25T09:11:31.291Z,7.35
2017-11-25T09:13:58.816Z,6.20
2017-11-25T09:16:26.317Z,6.40
2017-11-25T09:18:54.600Z,6.55
2017-11-25T09:21:22.871Z,6.62
2017-11-25T09:23:51.155Z,8.20
2017-11-25T09:26:18.679Z,7.40
2017-11-25T09:28:46.185Z,8.85
2017-11-25T09:31:13.728Z,6.95
2017-11-25T09:33:42.005Z,8.05
2017-11-25T09:36:10.311Z,7.80
2017-11-25T09:38:37.819Z,10.88
2017-11-25T09:41:05.353Z,13.00
2017-11-25T09:43:32.861Z,14.13
2017-11-25T09:46:01.164Z,11.77
2017-11-25T09:48:28.676Z,15.73
2017-11-25T09:50:56.197Z,25.37
2017-11-25T09:53:23.745Z,24.30
2017-11-25T09:55:51.249Z,19.83
2017-11-25T09:58:18.785Z,16.02
2017-11-25T10:00:46.299Z,19.10
2017-11-25T10:03:14.596Z,11.70
2017-11-25T10:05:42.106Z,9.48
2017-11-25T10:08:09.634Z,7.35
2017-11-25T10:10:37.153Z,6.53
2017-11-25T10:13:05.450Z,4.50
2017-11-25T10:15:32.977Z,7.00
2017-11-25T10:18:01.264Z,5.80
2017-11-25T10:20:28.780Z,4.30
2017-11-25T10:22:56.300Z,4.60
2017-11-25T10:25:23.799Z,6.93
2017-11-25T10:27:51.316Z,4.32
2017-11-25T10:30:18.819Z,3.25
2017-11-25T10:32:46.336Z,3.67
2017-11-25T10:35:13.849Z,3.78
2017-11-25T10:37:41.368Z,4.05
2017-11-25T10:40:08.877Z,3.80
2017-11-25T10:42:37.169Z,2.22
2017-11-25T10:45:04.688Z,2.65
2017-11-25T10:47:32.198Z,2.53
2017-11-25T10:50:00.506Z,2.45
2017-11-25T10:52:28.012Z,1.95
2017-11-25T10:54:56.308Z,1.85
2017-11-25T10:57:23.815Z,1.87
2017-11-25T10:59:51.328Z,1.30
2017-11-25T11:02:18.835Z,1.80
2017-11-25T11:04:46.360Z,0.80
2017-11-25T11:07:13.876Z,3.08
2017-11-25T11:09:41.397Z,0.80
2017-11-25T11:12:08.890Z,0.68
2017-11-25T11:14:36.416Z,0.85
2017-11-25T11:17:03.944Z,0.70
2017-11-25T11:19:31.476Z,0.60
2017-11-25T11:21:58.972Z,0.70
2017-11-25T11:24:26.498Z,0.90
2017-11-25T11:26:54.764Z,3.08
2017-11-25T11:29:22.287Z,0.70
2017-11-25T11:31:49.783Z,1.30
2017-11-25T11:34:17.400Z,1.52
2017-11-25T11:36:44.929Z,2.45
2017-11-25T11:39:13.200Z,1.98
2017-11-25T11:41:41.487Z,0.60
2017-11-25T11:44:08.988Z,1.85
2017-11-25T11:46:36.515Z,0.60
2017-11-25T11:49:04.021Z,0.60
2017-11-25T11:51:31.547Z,0.50
2017-11-25T11:53:59.046Z,0.50
2017-11-25T11:56:26.563Z,0.60
2017-11-25T11:58:54.075Z,1.62
2017-11-25T12:01:21.615Z,0.50
2017-11-25T12:03:49.123Z,0.60
2017-11-25T12:06:16.652Z,0.60
2017-11-25T12:08:44.157Z,1.87
2017-11-25T12:11:11.675Z,0.75
2017-11-25T12:13:39.962Z,0.60
2017-11-25T12:16:08.256Z,0.80
2017-11-25T12:18:35.789Z,2.45
2017-11-25T12:21:04.078Z,0.75
2017-11-25T12:23:32.355Z,1.85
2017-11-25T12:25:59.868Z,1.27
2017-11-25T12:28:27.372Z,0.90
2017-11-25T12:30:55.662Z,0.80
2017-11-25T12:33:23.159Z,0.52
2017-11-25T12:35:50.683Z,1.05
2017-11-25T12:38:18.184Z,0.70
2017-11-25T12:40:45.721Z,0.60
2017-11-25T12:43:13.377Z,0.77
2017-11-25T12:45:40.880Z,0.50
2017-11-25T12:48:08.402Z,1.42
2017-11-25T12:50:35.899Z,0.60
2017-11-25T12:53:03.412Z,0.80
2017-11-25T12:55:30.926Z,1.35
2017-11-25T12:57:58.453Z,0.68
2017-11-25T13:00:25.951Z,0.80
2017-11-25T13:02:54.238Z,0.70
2017-11-25T13:05:22.508Z,1.27
2017-11-25T13:07:50.804Z,0.90
2017-11-25T13:10:18.307Z,0.90
2017-11-25T13:12:45.821Z,0.88
2017-11-25T13:15:13.333Z,1.55
2017-11-25T13:17:40.862Z,0.52
2017-11-25T13:20:08.378Z,0.50
2017-11-25T13:22:36.857Z,0.68
2017-11-25T13:25:05.133Z,0.80
2017-11-25T13:27:32.655Z,0.50
2017-11-25T13:30:00.156Z,0.50
2017-11-25T13:32:27.682Z,0.50
2017-11-25T13:34:55.179Z,0.70
2017-11-25T13:37:23.446Z,1.12
2017-11-25T13:39:51.732Z,0.70
2017-11-25T13:42:19.232Z,0.90
2017-11-25T13:44:46.748Z,0.70
2017-11-25T13:47:14.252Z,0.70
2017-11-25T13:49:41.773Z,0.98
2017-11-25T13:52:09.279Z,0.80
2017-11-25T13:54:36.790Z,0.80
2017-11-25T13:57:05.064Z,0.98
2017-11-25T13:59:33.344Z,1.15
2017-11-25T14:02:01.606Z,1.90
2017-11-25T14:04:29.888Z,1.05
2017-11-25T14:06:58.147Z,1.00
2017-11-25T14:09:25.665Z,0.77
2017-11-25T14:11:53.159Z,8.38
2017-11-25T14:14:20.675Z,1.10
2017-11-25T14:16:48.168Z,1.23
2017-11-25T14:19:15.688Z,1.62
2017-11-25T14:21:43.192Z,0.90
2017-11-25T14:24:10.700Z,1.10
2017-11-25T14:26:38.200Z,1.15
2017-11-25T14:29:05.711Z,1.58
2017-11-25T14:31:33.206Z,0.80
2017-11-25T14:34:00.728Z,0.70
2017-11-25T14:36:28.225Z,0.80
2017-11-25T14:38:55.748Z,0.65
2017-11-25T14:41:23.257Z,0.62
2017-11-25T14:43:50.771Z,0.70
2017-11-25T14:46:18.271Z,0.65
2017-11-25T14:48:45.791Z,0.80
2017-11-25T14:51:13.292Z,1.20
2017-11-25T14:53:40.809Z,0.85
2017-11-25T14:56:08.312Z,0.90
2017-11-25T14:58:35.837Z,1.15
2017-11-25T15:01:03.332Z,1.00
2017-11-25T15:03:30.849Z,0.80
2017-11-25T15:05:59.118Z,0.80
2017-11-25T15:08:26.628Z,1.02
2017-11-25T15:10:54.148Z,1.77
2017-11-25T15:13:21.648Z,1.08
2017-11-25T15:15:49.179Z,1.05
2017-11-25T15:18:16.675Z,1.67
2017-11-25T15:20:44.187Z,1.42
2017-11-25T15:23:11.688Z,1.23
2017-11-25T15:25:39.206Z,1.45
2017-11-25T15:28:06.722Z,1.85
2017-11-25T15:30:35.236Z,1.87
2017-11-25T15:33:02.749Z,2.00
2017-11-25T15:35:30.275Z,1.35
2017-11-25T15:38:02.776Z,1.10
2017-11-25T15:40:30.305Z,1.60
2017-11-25T15:42:57.812Z,1.77
2017-11-25T15:45:26.087Z,2.05
2017-11-25T15:47:53.604Z,1.20
2017-11-25T15:50:21.100Z,1.85
2017-11-25T15:52:48.619Z,1.98
2017-11-25T15:55:16.136Z,2.08
2017-11-25T15:57:43.668Z,1.90
2017-11-25T16:00:11.169Z,3.60
2017-11-25T16:02:38.691Z,2.60
2017-11-25T16:05:06.220Z,5.05
2017-11-25T16:07:33.783Z,1.90
2017-11-25T16:10:01.460Z,2.20
2017-11-25T16:12:28.981Z,2.28
2017-11-25T16:14:56.503Z,3.00
2017-11-25T16:17:24.019Z,1.95
2017-11-25T16:19:51.552Z,1.70
2017-11-25T16:22:19.060Z,2.50
2017-11-25T16:24:46.560Z,1.87
2017-11-25T16:27:14.084Z,1.75
2017-11-25T16:29:41.592Z,1.77
2017-11-25T16:32:09.121Z,1.33
2017-11-25T16:34:38.421Z,1.62
2017-11-25T16:37:06.772Z,1.60
2017-11-25T16:39:34.283Z,2.12
2017-11-25T16:42:04.982Z,1.80
2017-11-25T16:44:33.252Z,2.12
2017-11-25T16:47:00.776Z,4.40
2017-11-25T16:49:28.276Z,4.95
2017-11-25T16:51:55.811Z,5.78
2017-11-25T16:54:24.878Z,3.10
2017-11-25T16:56:52.380Z,2.70
2017-11-25T16:59:19.908Z,4.82
2017-11-25T17:01:47.424Z,3.08
2017-11-25T17:04:15.707Z,4.45
2017-11-25T17:06:45.897Z,3.30
2017-11-25T17:09:13.419Z,3.35
2017-11-25T17:11:40.917Z,3.37
2017-11-25T17:14:10.047Z,3.05
2017-11-25T17:16:37.563Z,3.00
2017-11-25T17:19:05.131Z,3.67
2017-11-25T17:21:32.627Z,3.10
2017-11-25T17:24:00.128Z,15.00
2017-11-25T17:26:28.636Z,3.35
2017-11-25T17:28:56.248Z,5.25
2017-11-25T17:31:23.756Z,4.60
2017-11-25T17:33:51.267Z,5.57
2017-11-25T17:36:18.784Z,5.10
2017-11-25T17:38:47.043Z,6.53
2017-11-25T17:41:14.564Z,5.37
2017-11-25T17:43:42.056Z,4.87
2017-11-25T17:46:10.559Z,6.43
2017-11-25T17:48:38.839Z,5.05
2017-11-25T17:51:07.129Z,4.50
2017-11-25T17:53:34.628Z,3.53
2017-11-25T17:56:02.144Z,4.95
2017-11-25T17:58:30.411Z,3.80
2017-11-25T18:00:58.771Z,3.95
2017-11-25T18:03:26.275Z,3.72
2017-11-25T18:05:54.724Z,3.83
2017-11-25T18:08:22.360Z,3.45
2017-11-25T18:10:49.889Z,3.60
2017-11-25T18:13:17.416Z,4.40
2017-11-25T18:15:44.928Z,5.03
2017-11-25T18:18:12.430Z,4.22
2017-11-25T18:20:39.944Z,5.47
2017-11-25T18:23:09.484Z,4.93
2017-11-25T18:25:37.005Z,5.32
2017-11-25T18:28:04.509Z,5.22
2017-11-25T18:30:32.060Z,6.30
2017-11-25T18:32:59.552Z,6.93
2017-11-25T18:35:27.069Z,8.05
2017-11-25T18:37:54.584Z,5.70
2017-11-25T18:40:22.079Z,4.95
2017-11-25T18:42:49.626Z,5.00
2017-11-25T18:45:17.121Z,3.72
2017-11-25T18:47:44.637Z,3.92
2017-11-25T18:50:12.139Z,4.00
2017-11-25T18:52:39.655Z,3.83
2017-11-25T18:55:07.161Z,3.78
2017-11-25T18:57:35.439Z,4.10
2017-11-25T19:00:03.700Z,3.95
2017-11-25T19:02:31.215Z,4.05
2017-11-25T19:04:58.720Z,3.83
2017-11-25T19:07:27.217Z,3.50
2017-11-25T19:09:55.480Z,6.62
2017-11-25T19:12:23.005Z,5.12
2017-11-25T19:14:50.512Z,6.25
2017-11-25T19:17:18.804Z,6.97
2017-11-25T19:19:46.307Z,4.43
2017-11-25T19:22:13.812Z,3.90
2017-11-25T19:24:42.089Z,3.00
2017-11-25T19:27:10.383Z,3.60
2017-11-25T19:29:37.887Z,4.60
2017-11-25T19:32:05.412Z,3.65
2017-11-25T19:34:32.902Z,6.00
2017-11-25T19:37:00.404Z,4.87
2017-11-25T19:39:27.908Z,9.00
2017-11-25T19:41:55.407Z,9.30
2017-11-25T19:44:22.928Z,13.95
2017-11-25T19:46:50.447Z,11.63
2017-11-25T19:49:17.968Z,9.05
2017-11-25T19:51:45.463Z,4.75
2017-11-25T19:54:13.743Z,7.20
2017-11-25T19:56:41.235Z,3.03
2017-11-25T19:59:08.752Z,2.90
2017-11-25T20:01:36.240Z,2.47
2017-11-25T20:04:03.797Z,2.97
2017-11-25T20:06:31.287Z,2.67
2017-11-25T20:08:58.813Z,2.33
2017-11-25T20:11:26.308Z,3.25
2017-11-25T20:13:53.822Z,4.10
2017-11-25T20:16:21.344Z,3.00
2017-11-25T20:18:48.853Z,2.28
2017-11-25T20:21:16.398Z,3.33
2017-11-25T20:23:43.958Z,2.22
2017-11-25T20:26:11.498Z,1.75
2017-11-25T20:28:39.809Z,2.65
2017-11-25T20:31:07.358Z,2.00
2017-11-25T20:33:34.869Z,2.72
2017-11-25T20:36:02.406Z,2.10
2017-11-25T20:38:29.946Z,3.62
2017-11-25T20:40:57.489Z,2.87
2017-11-25T20:43:25.007Z,2.80
2017-11-25T20:45:52.613Z,2.22
2017-11-25T20:48:20.868Z,5.22
2017-11-25T20:50:49.188Z,3.35
2017-11-25T20:53:16.708Z,3.05
2017-11-25T20:55:44.988Z,5.40
2017-11-25T20:58:12.635Z,4.60
2017-11-25T21:00:40.134Z,5.90
2017-11-25T21:03:07.664Z,4.70
2017-11-25T21:05:35.933Z,3.92
2017-11-25T21:08:04.220Z,4.12
2017-11-25T21:10:32.489Z,3.65
2017-11-25T21:13:00.804Z,3.53
2017-11-25T21:15:28.300Z,4.25
2017-11-25T21:17:55.804Z,5.25
2017-11-25T21:20:23.318Z,5.28
2017-11-25T21:22:50.857Z,4.22
2017-11-25T21:25:18.375Z,5.32
2017-11-25T21:27:46.645Z,6.50
2017-11-25T21:30:14.932Z,3.50
2017-11-25T21:32:42.447Z,3.78
2017-11-25T21:35:10.007Z,3.78
2017-11-25T21:37:37.535Z,3.70
2017-11-25T21:40:05.094Z,3.80
2017-11-25T21:42:32.587Z,4.60
2017-11-25T21:45:00.145Z,4.43
2017-11-25T21:47:27.708Z,3.70
2017-11-25T21:49:55.229Z,4.20
2017-11-25T21:52:22.729Z,4.20
2017-11-25T21:54:50.268Z,3.40
2017-11-25T21:57:17.820Z,5.55
2017-11-25T21:59:45.348Z,3.50
2017-11-25T22:02:12.913Z,3.30
2017-11-25T22:04:40.403Z,4.35
2017-11-25T22:07:08.684Z,4.93
2017-11-25T22:09:36.196Z,3.80
2017-11-25T22:12:04.481Z,4.12
2017-11-25T22:14:31.968Z,4.22
2017-11-25T22:16:59.483Z,4.47
2017-11-25T22:19:27.754Z,3.70
2017-11-25T22:21:56.089Z,4.93
2017-11-25T22:24:23.613Z,3.60
2017-11-25T22:26:51.119Z,3.22
2017-11-25T22:29:18.648Z,4.07
2017-11-25T22:31:46.144Z,3.25
2017-11-25T22:34:13.672Z,4.35
2017-11-25T22:36:41.198Z,4.00
2017-11-25T22:39:09.481Z,4.32
2017-11-25T22:41:37.749Z,3.78
2017-11-25T22:44:06.036Z,5.10
2017-11-25T22:46:33.541Z,4.40
2017-11-25T22:49:01.076Z,4.05
2017-11-25T22:51:28.577Z,4.32
2017-11-25T22:53:56.076Z,4.43
2017-11-25T22:56:23.602Z,4.65
2017-11-25T22:58:51.160Z,4.85
2017-11-25T23:01:18.675Z,7.15
2017-11-25T23:03:46.172Z,5.20
2017-11-25T23:06:13.735Z,5.05
2017-11-25T23:08:41.235Z,5.50
2017-11-25T23:11:08.753Z,5.32
2017-11-25T23:13:36.251Z,5.10
2017-11-25T23:16:03.765Z,5.10
2017-11-25T23:18:31.264Z,4.65
2017-11-25T23:20:59.569Z,5.60
2017-11-25T23:23:27.112Z,4.68
2017-11-25T23:25:54.680Z,4.53
2017-11-25T23:28:22.210Z,5.37
2017-11-25T23:30:50.479Z,6.45
2017-11-25T23:33:17.996Z,5.00
2017-11-25T23:35:45.493Z,5.03
2017-11-25T23:38:13.788Z,6.87
2017-11-25T23:40:42.039Z,4.97
2017-11-25T23:43:09.577Z,3.83
2017-11-25T23:45:37.087Z,4.75
2017-11-25T23:48:04.612Z,4.12
2017-11-25T23:50:32.110Z,5.85
2017-11-25T23:52:59.631Z,4.87
2017-11-25T23:55:27.129Z,4.57
2017-11-25T23:57:54.640Z,5.05
